createdAt,value
2019-04-05T00:02:14.707Z,6.50
2019-04-05T00:04:44.822Z,6.60
2019-04-05T00:07:14.855Z,6.50
2019-04-05T00:09:44.981Z,6.50
2019-04-05T00:12:15.979Z,6.50
2019-04-05T00:14:46.018Z,6.50
2019-04-05T00:17:16.003Z,6.50
2019-04-05T00:19:47.195Z,6.50
2019-04-05T00:22:17.218Z,6.50
2019-04-05T00:24:47.319Z,6.50
2019-04-05T00:27:17.395Z,6.40
2019-04-05T00:29:47.411Z,6.50
2019-04-05T00:32:17.418Z,6.50
2019-04-05T00:34:47.435Z,6.50
2019-04-05T00:37:17.478Z,6.50
2019-04-05T00:39:47.567Z,6.60
2019-04-05T00:42:17.595Z,6.50
2019-04-05T00:44:47.629Z,6.50
2019-04-05T00:47:17.642Z,6.50
2019-04-05T00:49:47.718Z,6.50
2019-04-05T00:52:17.719Z,6.50
2019-04-05T00:54:47.729Z,6.50
2019-04-05T00:57:17.771Z,6.50
2019-04-05T00:59:47.803Z,6.50
2019-04-05T01:02:17.782Z,6.40
2019-04-05T01:04:47.782Z,6.50
2019-04-05T01:07:17.759Z,6.50
2019-04-05T01:09:47.759Z,6.40
2019-04-05T01:12:19.102Z,6.40
2019-04-05T01:14:49.098Z,6.40
2019-04-05T01:17:24.727Z,6.40
2019-04-05T01:19:52.751Z,6.40
2019-04-05T01:22:27.553Z,6.40
2019-04-05T01:24:58.486Z,6.40
2019-04-05T01:27:30.164Z,6.40
2019-04-05T01:30:00.154Z,6.40
2019-04-05T01:32:30.137Z,6.40
2019-04-05T01:35:00.167Z,6.50
2019-04-05T01:37:30.148Z,6.50
2019-04-05T01:40:00.654Z,6.50
2019-04-05T01:42:31.286Z,6.50
2019-04-05T01:45:01.674Z,6.50
2019-04-05T01:47:31.808Z,6.50
2019-04-05T01:50:01.785Z,6.50
2019-04-05T01:52:33.052Z,6.40
2019-04-05T01:55:03.092Z,6.40
2019-04-05T01:57:33.179Z,6.40
2019-04-05T02:00:03.217Z,6.40
2019-04-05T02:02:33.871Z,6.40
2019-04-05T02:05:04.834Z,6.40
2019-04-05T02:07:34.858Z,6.40
2019-04-05T02:10:06.716Z,6.40
2019-04-05T02:12:38.110Z,6.40
2019-04-05T02:15:10.104Z,6.30
2019-04-05T02:17:40.124Z,6.30
2019-04-05T02:20:10.973Z,6.30
2019-04-05T02:22:41.090Z,6.30
2019-04-05T02:25:12.147Z,6.30
2019-04-05T02:27:42.158Z,6.30
2019-04-05T02:30:12.263Z,6.30
2019-04-05T02:32:42.308Z,6.30
2019-04-05T02:35:12.547Z,6.40
2019-04-05T02:37:42.618Z,6.30
2019-04-05T02:40:14.192Z,6.40
2019-04-05T02:42:47.087Z,6.30
2019-04-05T02:45:18.903Z,6.30
2019-04-05T02:47:53.206Z,6.30
2019-04-05T02:50:25.215Z,6.20
2019-04-05T02:52:58.194Z,6.20
2019-04-05T02:55:29.595Z,6.20
2019-04-05T02:58:00.309Z,6.20
2019-04-05T03:00:32.350Z,6.20
2019-04-05T03:03:05.820Z,6.20
2019-04-05T03:05:38.100Z,6.20
2019-04-05T03:08:09.184Z,6.20
2019-04-05T03:11:13.918Z,6.20
2019-04-05T03:13:51.583Z,6.20
2019-04-05T03:16:40.931Z,6.20
2019-04-05T03:19:19.056Z,6.20
2019-04-05T03:21:53.681Z,6.20
2019-04-05T03:24:27.405Z,6.30
2019-04-05T03:27:04.231Z,6.30
2019-04-05T03:29:34.759Z,6.40
2019-04-05T03:32:05.885Z,6.30
2019-04-05T03:34:36.828Z,6.30
2019-04-05T03:37:06.993Z,6.30
2019-04-05T03:39:37.659Z,6.30
2019-04-05T03:42:08.690Z,6.20
2019-04-05T03:44:38.776Z,6.20
2019-04-05T03:47:08.819Z,6.20
2019-04-05T03:49:38.805Z,6.20
2019-04-05T03:52:08.840Z,6.10
2019-04-05T03:54:38.929Z,6.10
2019-04-05T03:57:09.244Z,6.10
2019-04-05T03:59:39.593Z,6.10
2019-04-05T04:02:09.645Z,6.10
2019-04-05T04:04:39.687Z,6.10
2019-04-05T04:07:09.775Z,6.00
2019-04-05T04:09:39.895Z,6.10
2019-04-05T04:12:09.975Z,6.10
2019-04-05T04:14:40.432Z,6.10
2019-04-05T04:17:13.392Z,6.10
2019-04-05T04:19:42.753Z,6.10
2019-04-05T04:22:21.506Z,6.10
2019-04-05T04:24:51.822Z,6.10
2019-04-05T04:27:22.150Z,6.20
2019-04-05T04:29:53.134Z,6.20
2019-04-05T04:32:23.605Z,6.10
2019-04-05T04:34:54.724Z,6.20
2019-04-05T04:37:24.982Z,6.20
2019-04-05T04:39:55.046Z,6.20
2019-04-05T04:42:25.416Z,6.20
2019-04-05T04:44:55.454Z,6.20
2019-04-05T04:47:27.419Z,6.10
2019-04-05T04:49:58.939Z,6.20
2019-04-05T04:52:31.444Z,6.10
2019-04-05T04:55:01.782Z,6.20
2019-04-05T04:57:32.119Z,6.10
2019-04-05T05:00:02.155Z,6.20
2019-04-05T05:02:34.022Z,6.20
2019-04-05T05:05:04.703Z,6.20
2019-04-05T05:07:34.700Z,6.20
2019-04-05T05:10:05.243Z,6.20
2019-04-05T05:12:35.701Z,6.30
2019-04-05T05:15:06.397Z,6.30
2019-04-05T05:17:38.965Z,6.30
2019-04-05T05:20:09.511Z,6.30
2019-04-05T05:22:39.784Z,6.30
2019-04-05T05:25:10.196Z,6.30
2019-04-05T05:27:40.331Z,6.40
2019-04-05T05:30:12.019Z,6.40
2019-04-05T05:32:42.395Z,6.40
2019-04-05T05:35:12.545Z,6.50
2019-04-05T05:37:42.831Z,6.40
2019-04-05T05:40:13.439Z,6.50
2019-04-05T05:42:43.506Z,6.50
2019-04-05T05:45:13.547Z,6.50
2019-04-05T05:47:51.607Z,6.60
2019-04-05T05:50:15.374Z,6.60
2019-04-05T05:52:45.362Z,6.70
2019-04-05T05:55:15.382Z,6.70
2019-04-05T05:57:45.428Z,6.80
2019-04-05T06:00:17.147Z,6.80
2019-04-05T06:02:48.588Z,6.90
2019-04-05T06:05:18.814Z,6.90
2019-04-05T06:07:48.820Z,7.00
2019-04-05T06:10:18.850Z,7.00
2019-04-05T06:12:48.882Z,7.00
2019-04-05T06:15:18.898Z,7.00
2019-04-05T06:17:48.922Z,7.10
2019-04-05T06:20:19.531Z,7.20
2019-04-05T06:22:49.555Z,7.20
2019-04-05T06:25:19.583Z,7.20
2019-04-05T06:27:49.619Z,7.30
2019-04-05T06:30:19.626Z,7.40
2019-04-05T06:32:49.644Z,7.40
2019-04-05T06:35:19.711Z,7.50
2019-04-05T06:37:49.734Z,7.50
2019-04-05T06:40:19.739Z,7.50
2019-04-05T06:42:49.742Z,7.50
2019-04-05T06:45:19.746Z,7.60
2019-04-05T06:47:49.771Z,7.60
2019-04-05T06:50:19.774Z,7.60
2019-04-05T06:52:49.854Z,7.60
2019-04-05T06:55:19.868Z,7.60
2019-04-05T06:57:49.922Z,7.50
2019-04-05T07:00:27.553Z,7.50
2019-04-05T07:02:58.475Z,7.50
2019-04-05T07:05:28.531Z,7.50
2019-04-05T07:07:58.571Z,7.40
2019-04-05T07:10:28.552Z,7.40
2019-04-05T07:12:58.642Z,7.30
2019-04-05T07:15:28.737Z,7.30
2019-04-05T07:17:58.766Z,7.40
2019-04-05T07:20:28.755Z,7.40
2019-04-05T07:22:58.778Z,7.40
2019-04-05T07:25:29.759Z,7.40
2019-04-05T07:27:59.774Z,7.40
2019-04-05T07:30:29.782Z,7.50
2019-04-05T07:32:59.799Z,7.60
2019-04-05T07:35:33.709Z,7.70
2019-04-05T07:38:01.592Z,7.70
2019-04-05T07:40:31.591Z,7.80
2019-04-05T07:43:01.685Z,7.90
2019-04-05T07:45:31.662Z,7.90
2019-04-05T07:48:01.769Z,8.00
2019-04-05T07:50:32.019Z,8.10
2019-04-05T07:53:02.059Z,8.00
2019-04-05T07:55:32.041Z,8.10
2019-04-05T07:58:02.095Z,8.10
2019-04-05T08:00:57.044Z,8.10
2019-04-05T08:03:27.551Z,8.10
2019-04-05T08:05:57.568Z,8.10
2019-04-05T08:08:44.331Z,8.10
2019-04-05T08:11:15.223Z,8.20
2019-04-05T08:13:47.103Z,8.40
2019-04-05T08:16:17.111Z,8.40
2019-04-05T08:18:56.985Z,8.40
2019-04-05T08:21:19.891Z,8.40
2019-04-05T08:23:49.924Z,8.50
2019-04-05T08:26:19.928Z,8.50
2019-04-05T08:28:49.951Z,8.50
2019-04-05T08:31:19.950Z,8.50
2019-04-05T08:33:49.966Z,8.40
2019-04-05T08:36:19.959Z,8.50
2019-04-05T08:38:49.975Z,8.40
2019-04-05T08:41:19.960Z,8.40
2019-04-05T08:43:49.982Z,8.40
2019-04-05T08:46:19.967Z,8.40
2019-04-05T08:48:52.227Z,8.50
2019-04-05T08:51:21.658Z,8.60
2019-04-05T08:53:51.684Z,8.60
2019-04-05T08:56:21.693Z,8.50
2019-04-05T08:58:51.718Z,8.50
2019-04-05T09:01:21.753Z,8.60
2019-04-05T09:03:51.766Z,8.60
2019-04-05T09:06:21.755Z,8.70
2019-04-05T09:08:51.762Z,8.80
2019-04-05T09:11:21.774Z,9.00
2019-04-05T09:13:51.786Z,9.20
2019-04-05T09:16:21.802Z,9.10
2019-04-05T09:18:51.823Z,9.10
2019-04-05T09:21:21.815Z,9.00
2019-04-05T09:23:51.846Z,9.00
2019-04-05T09:26:21.837Z,8.90
2019-04-05T09:28:51.855Z,8.90
2019-04-05T09:31:21.923Z,8.90
2019-04-05T09:33:51.948Z,8.80
2019-04-05T09:36:21.956Z,8.90
2019-04-05T09:38:51.981Z,8.90
2019-04-05T09:41:21.986Z,8.90
2019-04-05T09:43:52.040Z,8.90
2019-04-05T09:46:22.048Z,9.00
2019-04-05T09:48:52.079Z,9.00
2019-04-05T09:51:22.100Z,8.90
2019-04-05T09:53:52.172Z,8.90
2019-04-05T09:56:22.192Z,8.80
2019-04-05T09:58:52.295Z,8.80
2019-04-05T10:01:23.468Z,8.70
2019-04-05T10:03:53.603Z,8.90
2019-04-05T10:06:23.630Z,9.00
2019-04-05T10:08:53.731Z,9.00
2019-04-05T10:11:23.755Z,9.10
2019-04-05T10:13:53.844Z,9.10
2019-04-05T10:16:23.864Z,9.00
2019-04-05T10:18:53.972Z,9.10
2019-04-05T10:21:23.998Z,9.20
2019-04-05T10:23:54.012Z,9.40
2019-04-05T10:26:24.035Z,9.60
2019-04-05T10:28:54.047Z,9.90
2019-04-05T10:31:24.076Z,10.10
2019-04-05T10:33:54.107Z,10.20
2019-04-05T10:36:24.141Z,10.30
2019-04-05T10:38:54.159Z,10.20
2019-04-05T10:41:24.196Z,10.30
2019-04-05T10:43:54.199Z,10.30
2019-04-05T10:46:24.283Z,10.40
2019-04-05T10:48:54.318Z,10.50
2019-04-05T10:51:24.426Z,10.60
2019-04-05T10:53:54.419Z,10.50
2019-04-05T10:56:24.452Z,10.50
2019-04-05T10:58:54.503Z,10.30
2019-04-05T11:01:24.655Z,10.20
2019-04-05T11:03:54.725Z,10.20
2019-04-05T11:06:24.769Z,10.20
2019-04-05T11:08:54.779Z,10.30
2019-04-05T11:11:24.829Z,10.10
2019-04-05T11:13:54.835Z,10.20
2019-04-05T11:16:24.865Z,10.30
2019-04-05T11:18:54.944Z,10.40
2019-04-05T11:21:25.066Z,10.40
2019-04-05T11:23:55.776Z,10.20
2019-04-05T11:26:26.490Z,10.20
2019-04-05T11:28:56.886Z,10.20
2019-04-05T11:31:26.915Z,10.30
2019-04-05T11:33:56.902Z,10.40
2019-04-05T11:36:27.099Z,10.30
2019-04-05T11:38:57.107Z,10.30
2019-04-05T11:41:28.368Z,10.30
2019-04-05T11:44:00.731Z,10.20
2019-04-05T11:46:34.219Z,10.10
2019-04-05T11:49:04.563Z,10.20
2019-04-05T11:51:35.613Z,10.10
2019-04-05T11:54:05.610Z,10.20
2019-04-05T11:56:35.650Z,10.30
2019-04-05T11:59:08.301Z,10.40
2019-04-05T12:01:46.526Z,10.30
2019-04-05T12:04:16.638Z,10.20
2019-04-05T12:06:46.654Z,10.10
2019-04-05T12:09:16.683Z,10.10
2019-04-05T12:11:46.720Z,10.10
2019-04-05T12:14:29.286Z,10.10
2019-04-05T12:16:48.503Z,10.10
2019-04-05T12:19:18.516Z,10.30
2019-04-05T12:21:48.555Z,10.20
2019-04-05T12:24:18.721Z,10.30
2019-04-05T12:26:48.755Z,10.20
2019-04-05T12:29:18.781Z,10.20
2019-04-05T12:31:48.928Z,10.40
2019-04-05T12:34:21.467Z,10.50
2019-04-05T12:36:52.683Z,10.50
2019-04-05T12:39:22.415Z,10.40
2019-04-05T12:41:52.543Z,10.40
2019-04-05T12:44:22.624Z,10.40
2019-04-05T12:46:52.661Z,10.30
2019-04-05T12:49:22.783Z,10.30
2019-04-05T12:51:52.782Z,10.20
2019-04-05T12:54:22.806Z,10.20
2019-04-05T12:56:54.295Z,10.20
2019-04-05T12:59:25.560Z,10.20
2019-04-05T13:01:56.130Z,10.20
2019-04-05T13:04:26.160Z,10.30
2019-04-05T13:06:56.160Z,10.30
2019-04-05T13:09:26.233Z,10.30
2019-04-05T13:11:57.400Z,10.30
2019-04-05T13:14:27.655Z,10.40
2019-04-05T13:17:01.770Z,10.50
2019-04-05T13:19:30.611Z,10.40
2019-04-05T13:22:02.824Z,10.50
2019-04-05T13:24:32.899Z,10.30
2019-04-05T13:27:02.943Z,10.40
2019-04-05T13:29:34.122Z,10.30
2019-04-05T13:32:04.192Z,10.40
2019-04-05T13:34:34.231Z,10.50
2019-04-05T13:37:04.375Z,10.40
2019-04-05T13:39:34.434Z,10.50
2019-04-05T13:42:06.572Z,10.60
2019-04-05T13:44:36.656Z,10.60
2019-04-05T13:47:08.473Z,10.70
2019-04-05T13:49:40.513Z,10.70
2019-04-05T13:52:12.091Z,10.70
2019-04-05T13:54:42.986Z,10.70
2019-04-05T13:57:13.022Z,10.70
2019-04-05T13:59:44.663Z,10.60
2019-04-05T14:02:14.942Z,10.60
2019-04-05T14:04:44.970Z,10.60
2019-04-05T14:07:15.046Z,10.50
2019-04-05T14:09:45.075Z,10.40
2019-04-05T14:12:15.163Z,10.20
2019-04-05T14:14:48.003Z,10.10
2019-04-05T14:17:16.944Z,10.10
2019-04-05T14:19:48.726Z,10.00
2019-04-05T14:22:22.204Z,10.00
2019-04-05T14:24:52.864Z,10.00
2019-04-05T14:27:22.255Z,10.00
2019-04-05T14:29:52.295Z,10.10
2019-04-05T14:32:22.490Z,10.10
2019-04-05T14:34:54.783Z,10.20
2019-04-05T14:37:25.095Z,10.10
2019-04-05T14:39:55.343Z,10.10
2019-04-05T14:42:25.370Z,10.20
2019-04-05T14:44:55.483Z,10.10
2019-04-05T14:47:27.809Z,10.30
2019-04-05T14:49:58.262Z,10.30
2019-04-05T14:52:31.237Z,10.40
2019-04-05T14:55:01.004Z,10.40
2019-04-05T14:57:32.613Z,10.40
2019-04-05T15:00:02.838Z,10.40
2019-04-05T15:02:32.921Z,10.50
2019-04-05T15:05:02.971Z,10.50
2019-04-05T15:07:32.980Z,10.40
2019-04-05T15:10:04.871Z,10.40
2019-04-05T15:12:34.869Z,10.40
2019-04-05T15:15:05.647Z,10.30
2019-04-05T15:17:47.456Z,10.40
2019-04-05T15:20:08.054Z,10.30
2019-04-05T15:22:41.350Z,10.30
2019-04-05T15:25:10.808Z,10.20
2019-04-05T15:27:40.880Z,10.20
2019-04-05T15:30:11.072Z,10.20
2019-04-05T15:32:41.188Z,10.30
2019-04-05T15:35:11.498Z,10.30
2019-04-05T15:37:41.916Z,10.30
2019-04-05T15:40:12.111Z,10.30
2019-04-05T15:42:42.286Z,10.30
2019-04-05T15:45:15.830Z,10.30
2019-04-05T15:47:44.527Z,10.30
2019-04-05T15:50:16.387Z,10.20
2019-04-05T15:52:46.535Z,10.20
2019-04-05T15:55:16.552Z,10.20
2019-04-05T15:57:46.687Z,10.10
2019-04-05T16:00:21.856Z,10.10
2019-04-05T16:02:51.879Z,10.00
2019-04-05T16:05:21.887Z,10.00
2019-04-05T16:07:51.943Z,9.90
2019-04-05T16:10:22.007Z,9.90
2019-04-05T16:12:52.030Z,9.80
2019-04-05T16:15:22.133Z,9.80
2019-04-05T16:17:52.234Z,9.80
2019-04-05T16:20:22.347Z,9.80
2019-04-05T16:22:52.383Z,9.90
2019-04-05T16:25:22.397Z,9.90
2019-04-05T16:27:52.529Z,9.90
2019-04-05T16:30:22.554Z,9.80
2019-04-05T16:32:52.686Z,9.80
2019-04-05T16:35:22.929Z,9.80
2019-04-05T16:37:53.104Z,9.90
2019-04-05T16:40:23.463Z,9.80
2019-04-05T16:43:02.333Z,9.80
2019-04-05T16:45:25.468Z,9.70
2019-04-05T16:47:55.507Z,9.70
2019-04-05T16:50:25.664Z,9.70
2019-04-05T16:52:55.775Z,9.70
2019-04-05T16:55:25.782Z,9.60
2019-04-05T16:57:55.847Z,9.60
2019-04-05T17:00:25.866Z,9.50
2019-04-05T17:02:55.906Z,9.50
2019-04-05T17:05:25.916Z,9.50
2019-04-05T17:07:56.086Z,9.50
2019-04-05T17:10:26.122Z,9.40
2019-04-05T17:12:56.168Z,9.40
2019-04-05T17:15:26.634Z,9.40
2019-04-05T17:17:58.295Z,9.40
2019-04-05T17:20:28.389Z,9.30
2019-04-05T17:22:58.935Z,9.40
2019-04-05T17:25:29.138Z,9.40
2019-04-05T17:27:59.241Z,9.40
2019-04-05T17:30:29.246Z,9.40
2019-04-05T17:32:59.335Z,9.40
2019-04-05T17:35:29.368Z,9.30
2019-04-05T17:37:59.395Z,9.30
2019-04-05T17:40:29.419Z,9.30
2019-04-05T17:42:59.523Z,9.30
2019-04-05T17:45:29.548Z,9.30
2019-04-05T17:47:59.565Z,9.30
2019-04-05T17:50:32.019Z,9.20
2019-04-05T17:53:12.320Z,9.20
2019-04-05T17:55:33.863Z,9.20
2019-04-05T17:58:06.542Z,9.10
2019-04-05T18:00:37.245Z,9.10
2019-04-05T18:03:07.250Z,9.20
2019-04-05T18:05:37.271Z,9.20
2019-04-05T18:08:07.352Z,9.10
2019-04-05T18:10:37.381Z,9.10
2019-04-05T18:13:07.385Z,9.10
2019-04-05T18:15:37.415Z,9.00
2019-04-05T18:18:07.407Z,9.00
2019-04-05T18:20:37.435Z,9.10
2019-04-05T18:23:07.451Z,9.10
2019-04-05T18:25:37.483Z,9.10
2019-04-05T18:28:07.914Z,9.10
2019-04-05T18:30:38.009Z,9.00
2019-04-05T18:33:08.439Z,9.00
2019-04-05T18:35:38.563Z,9.00
2019-04-05T18:38:08.559Z,9.10
2019-04-05T18:40:40.206Z,9.10
2019-04-05T18:43:10.279Z,9.10
2019-04-05T18:45:40.309Z,9.10
2019-04-05T18:48:10.418Z,9.00
2019-04-05T18:50:40.435Z,9.00
2019-04-05T18:53:10.422Z,8.90
2019-04-05T18:55:40.442Z,8.90
2019-04-05T18:58:10.469Z,8.90
2019-04-05T19:00:41.451Z,9.00
2019-04-05T19:03:11.464Z,9.00
2019-04-05T19:05:41.518Z,8.90
2019-04-05T19:08:11.672Z,8.90
2019-04-05T19:10:41.687Z,8.90
2019-04-05T19:13:11.722Z,8.90
2019-04-05T19:15:41.831Z,8.90
2019-04-05T19:18:11.834Z,9.00
2019-04-05T19:20:41.857Z,8.90
2019-04-05T19:23:11.848Z,8.90
2019-04-05T19:25:41.864Z,8.90
2019-04-05T19:28:11.951Z,9.00
2019-04-05T19:48:31.633Z,8.90
2019-04-05T19:50:56.024Z,8.90
2019-04-05T19:53:26.010Z,8.90
2019-04-05T19:55:56.014Z,8.80
2019-04-05T19:58:26.051Z,8.90
2019-04-05T20:00:56.050Z,8.90
2019-04-05T20:03:27.045Z,8.90
2019-04-05T20:05:57.033Z,8.80
2019-04-05T20:08:28.204Z,8.70
2019-04-05T20:10:58.339Z,8.70
2019-04-05T20:13:28.338Z,8.70
2019-04-05T20:15:59.322Z,8.70
2019-04-05T20:18:29.455Z,8.70
2019-04-05T20:20:59.483Z,8.70
2019-04-05T20:23:29.658Z,8.70
2019-04-05T20:25:59.651Z,8.80
2019-04-05T20:28:29.795Z,8.80
2019-04-05T20:30:59.914Z,8.80
2019-04-05T20:33:29.974Z,8.80
2019-04-05T20:36:00.065Z,8.80
2019-04-05T20:38:30.280Z,8.80
2019-04-05T20:41:00.491Z,8.80
2019-04-05T20:43:30.583Z,8.80
2019-04-05T20:46:00.577Z,8.80
2019-04-05T20:48:30.591Z,8.80
2019-04-05T20:51:00.619Z,8.80
2019-04-05T20:53:30.638Z,8.80
2019-04-05T20:56:00.719Z,8.80
2019-04-05T20:58:30.892Z,8.80
2019-04-05T21:01:01.011Z,8.80
2019-04-05T21:03:31.210Z,8.80
2019-04-05T21:06:01.682Z,8.70
2019-04-05T21:08:31.698Z,8.70
2019-04-05T21:11:01.995Z,8.70
2019-04-05T21:13:32.107Z,8.70
2019-04-05T21:16:02.127Z,8.70
2019-04-05T21:18:32.394Z,8.70
2019-04-05T21:21:02.643Z,8.70
2019-04-05T21:23:32.678Z,8.70
2019-04-05T21:26:02.673Z,8.70
2019-04-05T21:28:32.941Z,8.70
2019-04-05T21:31:03.067Z,8.70
2019-04-05T21:33:33.272Z,8.70
2019-04-05T21:36:03.440Z,8.70
2019-04-05T21:38:33.462Z,8.70
2019-04-05T21:41:03.606Z,8.70
2019-04-05T21:43:33.773Z,8.70
2019-04-05T21:46:03.875Z,8.70
2019-04-05T21:48:33.924Z,8.70
2019-04-05T21:51:21.015Z,8.60
2019-04-05T21:53:51.207Z,8.60
2019-04-05T21:56:21.274Z,8.60
2019-04-05T21:58:51.406Z,8.60
2019-04-05T22:01:22.426Z,8.60
2019-04-05T22:03:54.132Z,8.60
2019-04-05T22:06:24.306Z,8.60
2019-04-05T22:08:54.698Z,8.60
2019-04-05T22:11:24.894Z,8.60
2019-04-05T22:13:55.048Z,8.60
2019-04-05T22:16:25.238Z,8.60
2019-04-05T22:18:55.390Z,8.60
2019-04-05T22:21:25.578Z,8.60
2019-04-05T22:23:55.772Z,8.60
2019-04-05T22:26:25.802Z,8.60
2019-04-05T22:28:55.847Z,8.60
2019-04-05T22:31:26.051Z,8.60
2019-04-05T22:33:56.301Z,8.70
2019-04-05T22:36:26.623Z,8.70
2019-04-05T22:38:57.006Z,8.70
2019-04-05T22:41:27.106Z,8.70
2019-04-05T22:43:57.173Z,8.70
2019-04-05T22:46:27.664Z,8.70
2019-04-05T22:48:57.759Z,8.70
2019-04-05T22:51:27.933Z,8.70
2019-04-05T22:53:57.995Z,8.60
2019-04-05T22:56:28.026Z,8.60
2019-04-05T22:58:58.042Z,8.70
2019-04-05T23:01:28.075Z,8.70
2019-04-05T23:03:58.066Z,8.70
2019-04-05T23:06:28.258Z,8.70
2019-04-05T23:08:58.314Z,8.70
2019-04-05T23:11:28.358Z,8.70
2019-04-05T23:13:58.434Z,8.70
2019-04-05T23:16:29.530Z,8.80
2019-04-05T23:18:59.554Z,8.80
2019-04-05T23:21:29.592Z,8.80
2019-04-05T23:23:59.645Z,8.80
2019-04-05T23:26:30.795Z,8.80
2019-04-05T23:29:00.792Z,8.80
2019-04-05T23:31:31.951Z,8.80
2019-04-05T23:34:01.969Z,8.80
2019-04-05T23:36:32.247Z,8.70
2019-04-05T23:39:02.238Z,8.80
2019-04-05T23:41:33.523Z,8.80
2019-04-05T23:44:03.546Z,8.80
2019-04-05T23:46:33.561Z,8.70
2019-04-05T23:49:03.575Z,8.70
2019-04-05T23:51:33.603Z,8.80
2019-04-05T23:54:03.784Z,8.80
2019-04-05T23:56:34.061Z,8.80
2019-04-05T23:59:04.150Z,8.90
